createdAt,value
2019-05-22T00:01:15.418Z,100584.09
2019-05-22T00:03:45.474Z,100583.23
2019-05-22T00:06:17.183Z,100580.22
2019-05-22T00:08:48.476Z,100579.67
2019-05-22T00:11:18.975Z,100589.74
2019-05-22T00:13:47.990Z,100585.02
2019-05-22T00:16:17.284Z,100583.75
2019-05-22T00:18:47.487Z,100583.45
2019-05-22T00:21:18.113Z,100563.50
2019-05-22T00:23:47.086Z,100595.18
2019-05-22T00:26:16.984Z,100593.82
2019-05-22T00:28:47.207Z,100595.39
2019-05-22T00:31:18.637Z,100591.31
2019-05-22T00:33:47.752Z,100593.70
2019-05-22T00:36:17.871Z,100608.36
2019-05-22T00:38:46.395Z,100598.75
2019-05-22T00:41:18.318Z,100601.98
2019-05-22T00:43:48.418Z,100600.83
2019-05-22T00:46:20.143Z,100602.73
2019-05-22T00:48:48.743Z,100606.27
2019-05-22T00:51:36.900Z,100606.81
2019-05-22T00:54:25.224Z,100610.27
2019-05-22T00:56:56.370Z,100607.54
2019-05-22T00:59:27.907Z,100598.74
2019-05-22T01:01:59.553Z,100597.08
2019-05-22T01:04:39.009Z,100607.36
2019-05-22T01:07:18.445Z,100611.64
2019-05-22T01:09:52.971Z,100611.13
2019-05-22T01:12:43.548Z,100611.03
2019-05-22T01:15:15.347Z,100612.81
2019-05-22T01:17:45.162Z,100611.88
2019-05-22T01:20:16.003Z,100615.31
2019-05-22T01:22:47.878Z,100617.94
2019-05-22T01:25:20.787Z,100616.78
2019-05-22T01:27:49.175Z,100617.20
2019-05-22T01:30:23.899Z,100616.59
2019-05-22T01:32:54.254Z,100621.48
2019-05-22T01:35:30.097Z,100618.56
2019-05-22T01:37:59.982Z,100618.86
2019-05-22T01:40:41.617Z,100622.42
2019-05-22T01:43:13.065Z,100621.16
2019-05-22T01:45:43.215Z,100621.80
2019-05-22T01:48:19.194Z,100620.45
2019-05-22T01:50:56.299Z,100628.70
2019-05-22T01:53:27.377Z,100630.36
2019-05-22T01:55:58.990Z,100626.07
2019-05-22T01:58:29.845Z,100627.43
2019-05-22T02:01:00.406Z,100621.99
2019-05-22T02:03:30.577Z,100622.84
2019-05-22T02:06:00.992Z,100620.76
2019-05-22T02:08:32.425Z,100625.14
2019-05-22T02:11:01.925Z,100617.83
2019-05-22T02:13:38.160Z,100619.49
2019-05-22T02:16:09.246Z,100619.49
2019-05-22T02:18:42.234Z,100618.13
2019-05-22T02:21:12.526Z,100613.75
2019-05-22T02:23:43.077Z,100615.92
2019-05-22T02:26:13.212Z,100617.83
2019-05-22T02:28:41.916Z,100611.03
2019-05-22T02:31:14.962Z,100612.05
2019-05-22T02:34:01.327Z,100614.98
2019-05-22T02:36:30.500Z,100620.42
2019-05-22T02:39:01.358Z,100625.86
2019-05-22T02:41:34.664Z,100628.28
2019-05-22T02:44:05.822Z,100624.20
2019-05-22T02:46:34.711Z,100631.52
2019-05-22T02:49:05.482Z,100622.75
2019-05-22T02:51:33.974Z,100627.34
2019-05-22T02:54:05.399Z,100631.62
2019-05-22T02:56:34.815Z,100633.19
2019-05-22T02:59:06.974Z,100637.81
2019-05-22T03:01:37.842Z,100635.81
2019-05-22T03:04:07.934Z,100632.80
2019-05-22T03:06:37.680Z,100637.17
2019-05-22T03:09:18.585Z,100640.74
2019-05-22T03:11:53.883Z,100637.48
2019-05-22T03:14:24.208Z,100642.61
2019-05-22T03:16:56.357Z,100636.53
2019-05-22T03:19:46.173Z,100638.95
2019-05-22T03:22:25.770Z,100637.08
2019-05-22T03:24:58.050Z,100635.93
2019-05-22T03:27:39.010Z,100633.72
2019-05-22T03:30:24.196Z,100642.42
2019-05-22T03:32:54.569Z,100644.80
2019-05-22T03:35:26.312Z,100646.50
2019-05-22T03:37:56.950Z,100647.52
2019-05-22T03:40:29.813Z,100643.98
2019-05-22T03:42:59.813Z,100645.86
2019-05-22T03:45:29.449Z,100647.73
2019-05-22T03:47:59.112Z,100645.55
2019-05-22T03:50:29.772Z,100648.27
2019-05-22T03:53:01.080Z,100645.55
2019-05-22T03:55:29.684Z,100647.94
2019-05-22T03:57:58.117Z,100648.48
2019-05-22T04:00:28.225Z,100653.92
2019-05-22T04:02:57.118Z,100654.43
2019-05-22T04:05:27.741Z,100651.70
2019-05-22T04:07:58.554Z,100655.28
2019-05-22T04:10:30.002Z,100656.63
2019-05-22T04:12:58.577Z,100656.94
2019-05-22T04:15:29.079Z,100658.60
2019-05-22T04:18:01.477Z,100661.33
2019-05-22T04:20:32.544Z,100667.50
2019-05-22T04:23:02.112Z,100670.52
2019-05-22T04:25:32.328Z,100668.44
2019-05-22T04:28:02.379Z,100674.19
2019-05-22T04:30:32.256Z,100678.05
2019-05-22T04:33:01.779Z,100674.31
2019-05-22T04:35:31.776Z,100684.98
2019-05-22T04:38:01.958Z,100686.95
2019-05-22T04:40:42.441Z,100685.38
2019-05-22T04:43:12.398Z,100678.89
2019-05-22T04:45:41.152Z,100687.99
2019-05-22T04:48:10.517Z,100686.42
2019-05-22T04:50:39.987Z,100687.27
2019-05-22T04:53:11.563Z,100682.68
2019-05-22T04:55:40.131Z,100682.98
2019-05-22T04:58:11.382Z,100690.09
2019-05-22T05:00:39.904Z,100688.01
2019-05-22T05:03:09.347Z,100694.81
2019-05-22T05:05:40.121Z,100669.08
2019-05-22T05:08:11.968Z,100703.27
2019-05-22T05:10:42.054Z,100700.04
2019-05-22T05:13:10.688Z,100703.37
2019-05-22T05:15:39.353Z,100695.02
2019-05-22T05:18:08.077Z,100706.18
2019-05-22T05:20:38.148Z,100704.61
2019-05-22T05:23:06.782Z,100713.84
2019-05-22T05:25:35.200Z,100708.16
2019-05-22T05:28:07.294Z,100704.93
2019-05-22T05:30:35.952Z,100687.38
2019-05-22T05:33:05.979Z,100713.50
2019-05-22T05:35:36.663Z,100713.50
2019-05-22T05:38:07.069Z,100720.19
2019-05-22T05:40:41.827Z,100718.11
2019-05-22T05:43:12.420Z,100720.32
2019-05-22T05:45:43.140Z,100724.16
2019-05-22T05:48:14.054Z,100722.19
2019-05-22T05:51:01.835Z,100723.04
2019-05-22T05:53:32.445Z,100731.51
2019-05-22T05:56:10.648Z,100735.05
2019-05-22T05:58:40.922Z,100739.25
2019-05-22T06:01:14.052Z,100740.61
2019-05-22T06:03:43.523Z,100743.34
2019-05-22T06:06:25.076Z,100741.42
2019-05-22T06:09:01.661Z,100745.52
2019-05-22T06:11:33.779Z,100745.52
2019-05-22T06:14:08.779Z,100750.23
2019-05-22T06:16:54.100Z,100745.42
2019-05-22T06:19:26.309Z,100746.34
2019-05-22T06:21:54.850Z,100743.20
2019-05-22T06:24:36.438Z,100752.72
2019-05-22T06:27:16.254Z,100759.02
2019-05-22T06:30:04.860Z,100758.29
2019-05-22T06:32:54.542Z,100764.64
2019-05-22T06:35:25.152Z,100770.01
2019-05-22T06:38:17.422Z,100762.78
2019-05-22T06:40:46.366Z,100763.69
2019-05-22T06:43:28.668Z,100775.22
2019-05-22T06:45:57.571Z,100774.06
2019-05-22T06:48:26.016Z,100777.09
2019-05-22T06:50:54.713Z,100773.46
2019-05-22T06:53:23.242Z,100781.17
2019-05-22T06:55:51.694Z,100781.30
2019-05-22T06:58:20.746Z,100787.56
2019-05-22T07:00:54.201Z,100790.63
2019-05-22T07:03:24.593Z,100789.77
2019-05-22T07:05:54.816Z,100792.49
2019-05-22T07:08:23.404Z,100792.41
2019-05-22T07:10:52.098Z,100791.05
2019-05-22T07:13:22.056Z,100787.07
2019-05-22T07:15:52.421Z,100795.75
2019-05-22T07:18:24.001Z,100792.72
2019-05-22T07:20:53.253Z,100796.91
2019-05-22T07:23:24.434Z,100801.31
2019-05-22T07:25:54.790Z,100799.86
2019-05-22T07:28:26.835Z,100799.41
2019-05-22T07:30:56.078Z,100806.86
2019-05-22T07:33:24.850Z,100804.23
2019-05-22T07:36:12.142Z,100805.92
2019-05-22T07:38:23.848Z,100809.47
2019-05-22T07:40:54.183Z,100808.95
2019-05-22T07:43:23.216Z,100807.69
2019-05-22T07:45:53.796Z,100815.13
2019-05-22T07:48:26.762Z,100813.56
2019-05-22T07:50:56.920Z,100811.66
2019-05-22T07:53:26.683Z,100817.84
2019-05-22T07:55:58.028Z,100816.57
2019-05-22T07:58:29.834Z,100820.99
2019-05-22T08:01:02.081Z,100825.47
2019-05-22T08:03:32.671Z,100825.81
2019-05-22T08:06:03.273Z,100819.09
2019-05-22T08:08:33.220Z,100817.19
2019-05-22T08:11:03.589Z,100824.25
2019-05-22T08:13:33.249Z,100827.70
2019-05-22T08:16:02.688Z,100830.22
2019-05-22T08:18:33.578Z,100824.02
2019-05-22T08:21:02.980Z,100832.31
2019-05-22T08:23:33.517Z,100831.67
2019-05-22T08:26:02.121Z,100833.34
2019-05-22T08:28:33.323Z,100829.89
2019-05-22T08:31:03.157Z,100826.53
2019-05-22T08:33:34.464Z,100831.67
2019-05-22T08:36:05.071Z,100834.39
2019-05-22T08:38:35.290Z,100839.61
2019-05-22T08:41:08.800Z,100834.98
2019-05-22T08:44:03.210Z,100832.80
2019-05-22T08:46:09.600Z,100840.44
2019-05-22T08:48:47.522Z,100842.01
2019-05-22T08:51:15.077Z,100841.91
2019-05-22T08:53:47.997Z,100842.43
2019-05-22T08:56:15.957Z,100845.25
2019-05-22T08:58:47.627Z,100850.97
2019-05-22T09:01:17.663Z,100851.27
2019-05-22T09:03:47.045Z,100847.95
2019-05-22T09:06:15.629Z,100849.34
2019-05-22T09:08:44.109Z,100853.11
2019-05-22T09:11:12.619Z,100851.52
2019-05-22T09:13:41.446Z,100853.86
2019-05-22T09:16:09.969Z,100858.59
2019-05-22T09:18:38.644Z,100862.06
2019-05-22T09:21:07.844Z,100858.20
2019-05-22T09:23:37.033Z,100848.64
2019-05-22T09:26:08.354Z,100861.11
2019-05-22T09:28:37.559Z,100865.13
2019-05-22T09:31:06.198Z,100858.52
2019-05-22T09:33:36.507Z,100859.56
2019-05-22T09:36:07.553Z,100863.55
2019-05-22T09:38:36.778Z,100861.59
2019-05-22T09:41:06.434Z,100872.67
2019-05-22T09:43:35.011Z,100865.56
2019-05-22T09:46:03.896Z,100871.80
2019-05-22T09:48:35.495Z,100873.44
2019-05-22T09:51:06.342Z,100879.45
2019-05-22T09:53:38.063Z,100853.02
2019-05-22T09:56:06.614Z,100880.13
2019-05-22T09:58:35.508Z,100872.52
2019-05-22T10:01:05.382Z,100877.50
2019-05-22T10:03:36.614Z,100865.13
2019-05-22T10:06:06.005Z,100882.16
2019-05-22T10:08:34.651Z,100876.67
2019-05-22T10:11:03.297Z,100880.19
2019-05-22T10:13:33.306Z,100881.97
2019-05-22T10:16:01.879Z,100880.72
2019-05-22T10:18:30.404Z,100886.41
2019-05-22T10:20:59.399Z,100885.92
2019-05-22T10:23:29.090Z,100879.22
2019-05-22T10:25:57.764Z,100878.84
2019-05-22T10:28:26.318Z,100880.34
2019-05-22T10:30:57.498Z,100882.52
2019-05-22T10:33:28.094Z,100885.00
2019-05-22T10:35:56.586Z,100892.78
2019-05-22T10:38:25.128Z,100892.83
2019-05-22T10:40:58.971Z,100891.31
2019-05-22T10:43:25.581Z,100890.38
2019-05-22T10:45:54.044Z,100892.05
2019-05-22T10:48:24.067Z,100896.62
2019-05-22T10:50:52.464Z,100895.97
2019-05-22T10:53:32.901Z,100903.61
2019-05-22T10:55:54.341Z,100899.36
2019-05-22T10:58:22.806Z,100898.63
2019-05-22T11:00:51.398Z,100896.89
2019-05-22T11:03:20.418Z,100906.98
2019-05-22T11:06:05.688Z,100901.94
2019-05-22T11:08:20.855Z,100901.64
2019-05-22T11:10:50.463Z,100911.52
2019-05-22T11:13:19.640Z,100908.30
2019-05-22T11:15:48.593Z,100904.95
2019-05-22T11:18:17.826Z,100911.05
2019-05-22T11:20:46.333Z,100910.92
2019-05-22T11:23:15.381Z,100909.79
2019-05-22T11:25:44.083Z,100909.53
2019-05-22T11:28:12.772Z,100916.45
2019-05-22T11:30:41.213Z,100916.45
2019-05-22T11:33:10.112Z,100909.35
2019-05-22T11:35:41.066Z,100918.22
2019-05-22T11:38:09.779Z,100915.13
2019-05-22T11:40:39.547Z,100918.34
2019-05-22T11:43:09.192Z,100919.77
2019-05-22T11:45:37.621Z,100921.13
2019-05-22T11:48:08.199Z,100922.27
2019-05-22T11:50:40.474Z,100923.66
2019-05-22T11:53:09.722Z,100917.59
2019-05-22T11:55:45.160Z,100921.50
2019-05-22T11:58:10.034Z,100920.65
2019-05-22T12:00:38.789Z,100921.22
2019-05-22T12:03:09.011Z,100915.72
2019-05-22T12:05:38.108Z,100908.48
2019-05-22T12:08:07.088Z,100907.95
2019-05-22T12:10:37.367Z,100912.19
2019-05-22T12:13:09.433Z,100915.69
2019-05-22T12:15:39.232Z,100913.09
2019-05-22T12:18:07.996Z,100916.75
2019-05-22T12:20:36.898Z,100910.91
2019-05-22T12:23:06.308Z,100918.09
2019-05-22T12:25:34.767Z,100881.86
2019-05-22T12:28:03.249Z,100911.87
2019-05-22T12:30:31.766Z,100906.14
2019-05-22T12:33:01.126Z,100907.71
2019-05-22T12:35:31.272Z,100906.60
2019-05-22T12:38:01.470Z,100904.20
2019-05-22T12:40:32.827Z,100909.22
2019-05-22T12:43:03.457Z,100873.79
2019-05-22T12:45:33.381Z,100903.34
2019-05-22T12:48:04.221Z,100911.51
2019-05-22T12:50:33.726Z,100913.11
2019-05-22T12:53:05.740Z,100909.95
2019-05-22T12:55:34.925Z,100910.86
2019-05-22T12:58:05.454Z,100903.33
2019-05-22T13:00:34.967Z,100887.05
2019-05-22T13:03:06.256Z,100906.47
2019-05-22T13:05:39.558Z,100887.21
2019-05-22T13:08:09.492Z,100901.39
2019-05-22T13:10:39.325Z,100897.95
2019-05-22T13:13:09.009Z,100901.69
2019-05-22T13:15:38.706Z,100904.38
2019-05-22T13:18:09.972Z,100898.59
2019-05-22T13:20:43.526Z,100903.06
2019-05-22T13:23:13.719Z,100895.95
2019-05-22T13:25:43.454Z,100905.42
2019-05-22T13:28:14.375Z,100905.88
2019-05-22T13:30:46.931Z,100901.37
2019-05-22T13:33:20.143Z,100894.95
2019-05-22T13:35:49.157Z,100904.36
2019-05-22T13:38:17.975Z,100903.07
2019-05-22T13:40:48.277Z,100895.48
2019-05-22T13:43:18.283Z,100902.77
2019-05-22T13:45:47.416Z,100895.02
2019-05-22T13:48:16.199Z,100891.82
2019-05-22T13:50:45.959Z,100899.48
2019-05-22T13:53:17.971Z,100894.19
2019-05-22T13:55:47.050Z,100892.28
2019-05-22T13:58:16.501Z,100907.05
2019-05-22T14:00:45.117Z,100906.38
2019-05-22T14:03:14.630Z,100898.06
2019-05-22T14:05:43.251Z,100896.98
2019-05-22T14:08:12.612Z,100894.66
2019-05-22T14:10:41.255Z,100896.98
2019-05-22T14:13:09.715Z,100893.97
2019-05-22T14:15:52.096Z,100896.95
2019-05-22T14:18:08.814Z,100898.59
2019-05-22T14:20:38.637Z,100891.31
2019-05-22T14:23:07.205Z,100893.61
2019-05-22T14:25:36.058Z,100887.33
2019-05-22T14:28:05.617Z,100879.42
2019-05-22T14:30:34.168Z,100889.06
2019-05-22T14:33:04.860Z,100883.84
2019-05-22T14:35:47.456Z,100885.98
2019-05-22T14:38:07.966Z,100887.75
2019-05-22T14:40:38.476Z,100897.00
2019-05-22T14:43:07.825Z,100887.20
2019-05-22T14:45:37.172Z,100887.05
2019-05-22T14:48:05.882Z,100884.70
2019-05-22T14:50:34.448Z,100879.39
2019-05-22T14:53:03.019Z,100878.92
2019-05-22T14:55:33.641Z,100882.88
2019-05-22T14:58:03.265Z,100877.37
2019-05-22T15:00:33.574Z,100879.34
2019-05-22T15:03:02.305Z,100875.94
2019-05-22T15:05:32.097Z,100873.09
2019-05-22T15:08:00.873Z,100878.52
2019-05-22T15:10:47.471Z,100878.66
2019-05-22T15:13:16.428Z,100874.98
2019-05-22T15:15:45.081Z,100868.05
2019-05-22T15:18:13.606Z,100871.53
2019-05-22T15:20:56.773Z,100870.83
2019-05-22T15:23:26.967Z,100863.15
2019-05-22T15:25:55.464Z,100865.61
2019-05-22T15:28:26.862Z,100861.52
2019-05-22T15:30:54.969Z,100833.37
2019-05-22T15:33:24.346Z,100867.96
2019-05-22T15:35:54.655Z,100870.66
2019-05-22T15:38:23.892Z,100868.91
2019-05-22T15:40:54.145Z,100866.53
2019-05-22T15:43:24.501Z,100865.23
2019-05-22T15:45:54.288Z,100870.46
2019-05-22T15:48:30.323Z,100875.94
2019-05-22T15:51:02.575Z,100864.84
2019-05-22T15:53:33.366Z,100868.31
2019-05-22T15:56:04.998Z,100875.41
2019-05-22T15:58:35.244Z,100868.78
2019-05-22T16:01:08.219Z,100873.30
2019-05-22T16:03:37.297Z,100842.55
2019-05-22T16:06:07.510Z,100867.28
2019-05-22T16:08:36.496Z,100868.55
2019-05-22T16:11:09.014Z,100871.78
2019-05-22T16:13:39.439Z,100865.64
2019-05-22T16:16:09.632Z,100867.19
2019-05-22T16:18:38.752Z,100869.70
2019-05-22T16:21:10.782Z,100859.00
2019-05-22T16:23:40.286Z,100861.53
2019-05-22T16:26:11.675Z,100863.87
2019-05-22T16:28:42.325Z,100855.26
2019-05-22T16:31:12.444Z,100865.34
2019-05-22T16:33:41.771Z,100859.69
2019-05-22T16:36:11.062Z,100853.45
2019-05-22T16:38:41.683Z,100856.45
2019-05-22T16:41:11.137Z,100852.16
2019-05-22T16:43:48.746Z,100853.92
2019-05-22T16:46:16.476Z,100846.45
2019-05-22T16:48:47.672Z,100847.02
2019-05-22T16:51:18.523Z,100851.66
2019-05-22T16:53:58.870Z,100854.11
2019-05-22T16:56:27.825Z,100846.36
2019-05-22T16:58:57.784Z,100853.16
2019-05-22T17:01:28.280Z,100848.91
2019-05-22T17:04:00.127Z,100856.80
2019-05-22T17:06:29.202Z,100856.95
2019-05-22T17:08:59.254Z,100851.94
2019-05-22T17:11:28.398Z,100857.37
2019-05-22T17:13:59.679Z,100860.11
2019-05-22T17:16:29.588Z,100861.80
2019-05-22T17:18:58.803Z,100862.80
2019-05-22T17:21:27.999Z,100860.53
2019-05-22T17:23:59.224Z,100859.92
2019-05-22T17:26:28.775Z,100856.84
2019-05-22T17:28:57.354Z,100864.59
2019-05-22T17:31:27.608Z,100869.46
2019-05-22T17:33:56.269Z,100866.95
2019-05-22T17:36:25.604Z,100868.45
2019-05-22T17:38:56.516Z,100862.02
2019-05-22T17:41:27.762Z,100869.19
2019-05-22T17:43:57.195Z,100866.51
2019-05-22T17:46:27.272Z,100871.78
2019-05-22T17:48:56.789Z,100871.28
2019-05-22T17:51:26.874Z,100869.76
2019-05-22T17:53:55.432Z,100879.36
2019-05-22T17:56:25.224Z,100875.56
2019-05-22T17:58:53.645Z,100872.09
2019-05-22T18:01:23.821Z,100869.68
2019-05-22T18:03:53.539Z,100875.16
2019-05-22T18:06:21.983Z,100871.38
2019-05-22T18:08:50.871Z,100880.05
2019-05-22T18:11:19.857Z,100878.29
2019-05-22T18:14:03.815Z,100878.09
2019-05-22T18:16:33.990Z,100885.55
2019-05-22T18:19:04.669Z,100877.85
2019-05-22T18:21:34.226Z,100887.29
2019-05-22T18:24:04.166Z,100887.11
2019-05-22T18:26:34.617Z,100892.73
2019-05-22T18:29:03.536Z,100892.05
2019-05-22T18:31:31.951Z,100887.33
2019-05-22T18:34:00.479Z,100893.08
2019-05-22T18:36:29.034Z,100897.66
2019-05-22T18:38:57.504Z,100900.91
2019-05-22T18:41:26.551Z,100898.77
2019-05-22T18:43:56.888Z,100900.10
2019-05-22T18:46:25.292Z,100897.58
2019-05-22T18:48:53.769Z,100898.37
2019-05-22T18:51:23.192Z,100904.75
2019-05-22T18:53:54.764Z,100899.19
2019-05-22T18:56:23.391Z,100896.91
2019-05-22T18:58:52.410Z,100901.92
2019-05-22T19:01:21.756Z,100907.02
2019-05-22T19:03:51.899Z,100908.11
2019-05-22T19:06:29.792Z,100905.56
2019-05-22T19:08:50.980Z,100907.81
2019-05-22T19:11:19.488Z,100893.91
2019-05-22T19:13:49.472Z,100904.72
2019-05-22T19:16:17.984Z,100905.59
2019-05-22T19:18:46.836Z,100906.77
2019-05-22T19:21:15.417Z,100906.23
2019-05-22T19:23:43.873Z,100905.21
2019-05-22T19:26:12.340Z,100904.45
2019-05-22T19:28:44.079Z,100881.60
2019-05-22T19:31:10.953Z,100903.17
2019-05-22T19:33:39.506Z,100904.00
2019-05-22T19:36:09.125Z,100902.51
2019-05-22T19:38:39.097Z,100905.44
2019-05-22T19:41:07.484Z,100911.08
2019-05-22T19:43:35.960Z,100913.01
2019-05-22T19:46:04.878Z,100909.33
2019-05-22T19:48:34.341Z,100918.19
2019-05-22T19:51:04.106Z,100916.48
2019-05-22T19:53:32.943Z,100917.48
2019-05-22T19:56:01.436Z,100922.05
2019-05-22T19:58:31.758Z,100924.95
2019-05-22T20:01:00.399Z,100922.41
2019-05-22T20:03:30.136Z,100921.53
2019-05-22T20:05:59.151Z,100929.59
2019-05-22T20:08:27.693Z,100926.31
2019-05-22T20:10:56.466Z,100908.34
2019-05-22T20:13:25.294Z,100928.73
2019-05-22T20:15:54.959Z,100923.98
2019-05-22T20:18:28.247Z,100925.30
2019-05-22T20:20:56.776Z,100922.98
2019-05-22T20:23:35.127Z,100924.61
2019-05-22T20:25:56.009Z,100929.77
2019-05-22T20:28:26.061Z,100925.35
2019-05-22T20:30:54.955Z,100932.22
2019-05-22T20:33:26.969Z,100932.45
2019-05-22T20:35:55.883Z,100933.77
2019-05-22T20:38:25.439Z,100933.84
2019-05-22T20:40:54.101Z,100939.65
2019-05-22T20:43:22.738Z,100938.02
2019-05-22T20:45:53.911Z,100944.37
2019-05-22T20:48:28.800Z,100936.30
2019-05-22T20:50:59.920Z,100934.16
2019-05-22T20:53:30.212Z,100941.02
2019-05-22T20:56:00.051Z,100943.26
2019-05-22T20:58:30.415Z,100941.46
2019-05-22T21:01:00.936Z,100942.85
2019-05-22T21:03:31.969Z,100938.54
2019-05-22T21:06:04.936Z,100937.25
2019-05-22T21:08:36.090Z,100938.32
2019-05-22T21:11:04.772Z,100937.03
2019-05-22T21:13:34.648Z,100938.14
2019-05-22T21:16:05.267Z,100934.77
2019-05-22T21:18:35.469Z,100938.36
2019-05-22T21:21:05.273Z,100941.98
2019-05-22T21:23:35.975Z,100915.30
2019-05-22T21:26:05.470Z,100941.41
2019-05-22T21:28:33.921Z,100942.47
2019-05-22T21:31:04.073Z,100942.22
2019-05-22T21:33:32.584Z,100941.42
2019-05-22T21:36:01.777Z,100938.64
2019-05-22T21:38:30.451Z,100940.73
2019-05-22T21:40:59.458Z,100937.73
2019-05-22T21:43:28.630Z,100934.95
2019-05-22T21:45:57.606Z,100939.25
2019-05-22T21:48:28.961Z,100938.14
2019-05-22T21:50:57.541Z,100944.77
2019-05-22T21:53:26.103Z,100938.02
2019-05-22T21:56:04.002Z,100942.27
2019-05-22T21:58:26.992Z,100939.80
2019-05-22T22:00:57.972Z,100946.61
2019-05-22T22:03:38.609Z,100939.89
2019-05-22T22:06:07.689Z,100941.61
2019-05-22T22:08:36.587Z,100943.65
2019-05-22T22:11:05.641Z,100942.16
2019-05-22T22:13:34.891Z,100945.09
2019-05-22T22:16:04.055Z,100954.94
2019-05-22T22:18:33.120Z,100951.59
2019-05-22T22:21:02.432Z,100951.95
2019-05-22T22:23:30.824Z,100956.55
2019-05-22T22:26:00.710Z,100959.13
2019-05-22T22:28:30.002Z,100951.69
2019-05-22T22:31:00.576Z,100952.91
2019-05-22T22:33:32.434Z,100961.06
2019-05-22T22:36:03.285Z,100957.19
2019-05-22T22:38:33.324Z,100960.06
2019-05-22T22:41:02.426Z,100959.58
2019-05-22T22:43:33.272Z,100966.70
2019-05-22T22:46:05.324Z,100957.59
2019-05-22T22:48:37.490Z,100959.80
2019-05-22T22:51:09.724Z,100964.03
2019-05-22T22:53:38.975Z,100971.48
2019-05-22T22:56:10.137Z,100965.78
2019-05-22T22:58:39.975Z,100964.47
2019-05-22T23:01:13.031Z,100962.97
2019-05-22T23:03:45.392Z,100969.56
2019-05-22T23:06:15.849Z,100963.16
2019-05-22T23:08:45.280Z,100966.57
2019-05-22T23:11:15.699Z,100969.59
2019-05-22T23:13:46.245Z,100972.30
2019-05-22T23:16:18.178Z,100971.66
2019-05-22T23:18:58.596Z,100967.60
2019-05-22T23:21:25.851Z,100970.52
2019-05-22T23:23:53.888Z,100967.34
2019-05-22T23:26:23.795Z,100971.11
2019-05-22T23:28:54.985Z,100969.80
2019-05-22T23:31:24.218Z,100969.82
2019-05-22T23:33:53.675Z,100966.62
2019-05-22T23:36:22.914Z,100979.30
2019-05-22T23:38:52.415Z,100975.56
2019-05-22T23:41:23.857Z,100981.33
2019-05-22T23:43:52.841Z,100977.66
2019-05-22T23:46:24.504Z,100976.66
2019-05-22T23:48:53.380Z,100979.34
2019-05-22T23:51:22.975Z,100971.95
2019-05-22T23:53:53.098Z,100978.02
2019-05-22T23:56:22.494Z,100977.38
2019-05-22T23:58:53.135Z,100980.09
